Briefing drone pour Saint-jorioz

Rechercher une autre localisation

Conditions de vol :


Nous sommes le : Mardi 16 août 2022
Il est 00:30 UTC (02:30 LT)

Lever de soleil : 04:10 UTC (06:10 LT)
Coucher de soleil : 19:09 UTC (21:09 LT)

Météo

L'essentiel des conditions de vol

VIGILANCE MÉTÉO FRANCE - Haute-Savoie (74)
Pas de vigilances particulieres
CARTE TEMSI
CARTES DES FRONTS
METAR de LFLP
LFLP 160000Z AUTO 04006KT CAVOK 15/13 Q1011

Date d'émission: 16/08/2022
Heure d'émission: 00:00 UTC
Vent: 040° pour 6 KT (11 km/h)
Visibilité horizontale: > 10 km
Plafond : Plafond et visibilité OK (CAVOK)
Température: 15 °C
Point de rosée: 13 °C
Humidité: 88%
Pression (QNH): 1011 hPa
TAF de LFLP
AMD LFLP 151908Z 1519/1615 CNL

Conditions prévues :

Heure d'émission : Bulletin éffectué le 15 à 19:00 UTC
Prévision : Valide du 15 a 19:00 UTC au 16 a 15:00 UTC
Nuages : à 0ft (0 m)
WEBCAM POUR SAINT-JORIOZ

Réglementation

Voler en sécurité

CARTES AERONAUTIQUE 1/500.000
CARTE AZBA (Reseau basse altitude)
CARTES VAC (LFLP)
SUP AIP




Chargement des AIP...
NOTAM (SAINT-JORIOZ + Terrain à proximité / FIR )




Chargement des NOTAMS...
CONTACT PREFECTURE 74


Avertissement : Les données mises à disposition sont indicatives. Oxygène Drone ne pourra être tenu responsable de dégâts causés aux biens et aux personnes.